• Join FlightAware (Why Join?)
  • Login
  • US Flag 
07:20AM EDT


 

Airport Tracker/Info


-or-


 

Live Flight TrackerFlight Track Log ✈ UAL5819 ✈ 21-Jul-2013 ✈ KEWR - KIAD

Flight Track Log - Related Links

Times and Time Zones

All times are in EDT time to prevent confusion due to time zone crossing. See the UAL5819 flight status page for this flight to view local times or setup timezone preferences in your user account.

Time Position Orientation Groundspeed Altitude Reporting Facility
EDT Latitude Longitude Course Direction KTS MPH feet Rate Location/Type
10:12AM 40.7333 -74.1333 270° West 182 209 2,000  Level New York TRACON
10:13AM 40.7833 -74.1333 360° North 262 302 3,600 2,220 Climbing New York TRACON
10:14AM 40.6833 -74.4900 270° West  Level FlightAware Approximate
10:14AM 40.7833 -74.2167 270° West 248 285 6,500  Level New York TRACON
10:15AM 40.6834 -74.5978 270° West  Level FlightAware Approximate
10:16AM 40.6833 -74.7056 270° West  Level FlightAware Approximate
10:16AM 40.7608 -74.3764 260° West 275 316 10,000  Level New York Center
10:17AM 40.6834 -74.8133 270° West  Level FlightAware Approximate
10:17AM 40.7492 -74.4772 261° West 275 316 10,900  Level New York Center
10:18AM 40.7367 -74.6081 263° West 314 361 12,600 1,440 Climbing New York Center
10:19AM 40.7250 -74.7142 262° West 330 380 13,800 1,200 Climbing New York Center
10:20AM 40.7100 -74.8447 261° West 336 387 15,000 1,380 Climbing New York Center
10:21AM 40.6933 -74.9669 260° West 336 387 16,600 1,500 Climbing New York Center
10:22AM 40.6708 -75.0694 254° West 331 381 18,100 1,380 Climbing New York Center
10:23AM 40.6519 -75.1831 258° West 331 381 19,400 960 Climbing New York Center
10:24AM 40.6331 -75.2994 258° West 331 381 20,000 300 Climbing New York Center
10:25AM 40.6017 -75.4094 249° West 331 381 20,000  Level New York Center
10:26AM 40.5478 -75.5097 235° Southwest 331 381 20,000  Level New York Center
10:27AM 40.4958 -75.6097 236° Southwest 331 381 20,000  Level New York Center
10:28AM 40.4417 -75.7069 234° Southwest 341 392 20,000  Level New York Center
10:29AM 40.3831 -75.8144 234° Southwest 352 405 20,000  Level New York Center
10:30AM 40.3258 -75.9300 237° Southwest 368 423 20,000  Level New York Center
10:31AM 40.2889 -76.0581 249° West 373 429 20,000  Level New York Center
10:32AM 40.2583 -76.1836 252° West 378 435 20,000 -300 Level New York Center
10:33AM 40.2108 -76.3075 243° Southwest 378 435 19,500 -660 Descending New York Center
10:34AM 40.1475 -76.4083 231° Southwest 365 420 18,800 -900 Descending New York Center
10:35AM 40.0864 -76.5119 232° Southwest 371 427 17,800 -900 Descending New York Center
10:36AM 40.0228 -76.6153 231° Southwest 371 427 17,000 -840 Descending New York Center
10:38AM 39.8667 -76.8833 233° Southwest 357 411 15,000 -1,020 Descending Potomac TRACON
10:39AM 39.8167 -76.9667 232° Southwest 352 405 13,700 -1,500 Descending Potomac TRACON
10:40AM 39.7500 -77.0667 229° Southwest 345 397 12,200 -1,500 Descending Potomac TRACON
10:41AM 39.7000 -77.1833 241° Southwest 346 398 10,800 -1,200 Descending Potomac TRACON
10:42AM 39.6500 -77.2833 237° Southwest 326 375 9,900 -1,020 Descending Potomac TRACON
10:43AM 39.6000 -77.3167 207° Southwest 284 327 8,900 -1,140 Descending Potomac TRACON
10:44AM 39.5167 -77.3333 189° South 281 323 7,800 -960 Descending Potomac TRACON
10:45AM 39.4333 -77.3500 189° South 272 313 7,000 -840 Descending Potomac TRACON
10:46AM 39.3667 -77.3667 191° South 274 315 6,200 -960 Descending Potomac TRACON
10:47AM 39.2833 -77.3667 180° South 271 312 5,100 -960 Descending Potomac TRACON
10:48AM 39.2167 -77.3667 180° South 268 308 4,300 -600 Descending Potomac TRACON
10:49AM 39.1500 -77.3500 169° South 270 311 4,000 -300 Descending Potomac TRACON
10:50AM 39.0667 -77.3500 180° South 269 310 3,800 -540 Descending Potomac TRACON
10:51AM 39.0000 -77.3667 191° South 262 302 3,000 -840 Descending Potomac TRACON
10:52AM 38.9333 -77.3500 169° South 232 267 2,200 -480 Descending Potomac TRACON
10:53AM 38.8500 -77.3667 189° South 224 258 2,000 -240 Descending Potomac TRACON